createdAt,value
2019-03-28T00:01:43.042Z,12.82
2019-03-28T00:04:11.767Z,13.40
2019-03-28T00:06:40.501Z,13.23
2019-03-28T00:09:09.342Z,12.98
2019-03-28T00:11:37.890Z,14.40
2019-03-28T00:14:06.529Z,14.20
2019-03-28T00:16:35.106Z,14.50
2019-03-28T00:19:04.813Z,13.93
2019-03-28T00:21:33.397Z,14.85
2019-03-28T00:24:03.589Z,15.27
2019-03-28T00:26:32.269Z,15.57
2019-03-28T00:29:02.953Z,15.85
2019-03-28T00:31:31.713Z,16.07
2019-03-28T00:34:04.653Z,15.25
2019-03-28T00:36:34.193Z,15.50
2019-03-28T00:39:05.355Z,15.45
2019-03-28T00:41:36.425Z,15.00
2019-03-28T00:44:05.126Z,15.17
2019-03-28T00:46:37.834Z,15.47
2019-03-28T00:49:06.390Z,16.33
2019-03-28T00:51:36.267Z,17.00
2019-03-28T00:54:09.228Z,15.93
2019-03-28T00:56:46.902Z,15.43
2019-03-28T00:59:10.659Z,16.63
2019-03-28T01:01:39.238Z,15.80
2019-03-28T01:04:07.830Z,15.27
2019-03-28T01:06:37.911Z,16.30
2019-03-28T01:09:07.476Z,16.63
2019-03-28T01:11:37.153Z,16.43
2019-03-28T01:14:06.221Z,17.47
2019-03-28T01:16:34.712Z,16.73
2019-03-28T01:19:04.616Z,16.95
2019-03-28T01:21:33.212Z,18.03
2019-03-28T01:24:01.899Z,18.63
2019-03-28T01:26:30.486Z,17.47
2019-03-28T01:29:00.294Z,18.23
2019-03-28T01:31:28.842Z,16.47
2019-03-28T01:33:59.874Z,17.67
2019-03-28T01:36:28.435Z,17.90
2019-03-28T01:38:58.471Z,18.07
2019-03-28T01:41:27.190Z,18.60
2019-03-28T01:43:57.210Z,18.63
2019-03-28T01:46:25.784Z,19.40
2019-03-28T01:48:54.408Z,19.40
2019-03-28T01:51:22.963Z,19.37
2019-03-28T01:53:55.560Z,19.30
2019-03-28T01:56:26.202Z,19.43
2019-03-28T01:58:55.195Z,20.47
2019-03-28T02:01:23.959Z,18.53
2019-03-28T02:03:53.635Z,18.67
2019-03-28T02:06:26.296Z,20.17
2019-03-28T02:08:54.992Z,18.10
2019-03-28T02:11:23.585Z,19.60
2019-03-28T02:13:52.173Z,18.23
2019-03-28T02:16:21.417Z,20.23
2019-03-28T02:18:50.229Z,19.33
2019-03-28T02:21:18.795Z,20.03
2019-03-28T02:23:51.214Z,18.57
2019-03-28T02:26:19.843Z,19.30
2019-03-28T02:28:48.401Z,18.67
2019-03-28T02:31:21.204Z,18.45
2019-03-28T02:33:49.100Z,19.30
2019-03-28T02:36:19.113Z,19.67
2019-03-28T02:38:48.354Z,18.80
2019-03-28T02:41:17.196Z,19.03
2019-03-28T02:43:45.805Z,19.03
2019-03-28T02:46:15.982Z,18.82
2019-03-28T02:48:44.546Z,19.07
2019-03-28T02:51:13.103Z,19.00
2019-03-28T02:53:41.706Z,19.97
2019-03-28T02:56:11.466Z,19.35
2019-03-28T02:58:41.571Z,19.63
2019-03-28T03:01:11.690Z,19.30
2019-03-28T03:03:41.206Z,20.10
2019-03-28T03:06:12.184Z,19.97
2019-03-28T03:08:42.819Z,19.97
2019-03-28T03:11:11.378Z,19.03
2019-03-28T03:13:39.938Z,19.57
2019-03-28T03:16:10.066Z,19.87
2019-03-28T03:18:38.701Z,19.97
2019-03-28T03:21:07.344Z,19.80
2019-03-28T03:23:38.150Z,20.73
2019-03-28T03:26:06.701Z,19.97
2019-03-28T03:28:35.256Z,19.17
2019-03-28T03:31:06.782Z,18.17
2019-03-28T03:33:37.740Z,19.48
2019-03-28T03:36:07.384Z,17.73
2019-03-28T03:38:37.159Z,19.27
2019-03-28T03:41:07.026Z,19.17
2019-03-28T03:43:35.599Z,17.40
2019-03-28T03:46:04.185Z,19.50
2019-03-28T03:48:34.284Z,18.87
2019-03-28T03:51:02.843Z,19.60
2019-03-28T03:53:31.436Z,19.03
2019-03-28T03:56:03.003Z,19.80
2019-03-28T03:58:31.787Z,18.23
2019-03-28T04:01:00.305Z,18.37
2019-03-28T04:03:30.402Z,19.13
2019-03-28T04:05:58.957Z,18.20
2019-03-28T04:08:28.758Z,17.43
2019-03-28T04:10:58.461Z,19.12
2019-03-28T04:13:27.021Z,19.87
2019-03-28T04:15:55.603Z,19.13
2019-03-28T04:18:24.167Z,18.67
2019-03-28T04:20:52.765Z,19.70
2019-03-28T04:23:24.657Z,19.80
2019-03-28T04:25:53.247Z,21.03
2019-03-28T04:28:31.859Z,20.27
2019-03-28T04:30:52.049Z,21.43
2019-03-28T04:33:20.668Z,20.47
2019-03-28T04:35:49.237Z,21.27
2019-03-28T04:38:17.891Z,20.33
2019-03-28T04:40:46.443Z,21.10
2019-03-28T04:43:15.186Z,21.50
2019-03-28T04:45:43.788Z,20.20
2019-03-28T04:48:12.322Z,22.50
2019-03-28T04:50:40.874Z,21.12
2019-03-28T04:53:11.575Z,22.93
2019-03-28T04:55:42.927Z,22.57
2019-03-28T04:58:11.492Z,22.00
2019-03-28T05:00:40.078Z,21.37
2019-03-28T05:03:11.265Z,22.07
2019-03-28T05:05:39.816Z,24.53
2019-03-28T05:08:09.952Z,22.45
2019-03-28T05:10:38.426Z,23.90
2019-03-28T05:13:08.653Z,22.40
2019-03-28T05:15:40.334Z,23.77
2019-03-28T05:18:08.910Z,25.87
2019-03-28T05:20:37.515Z,22.57
2019-03-28T05:23:06.206Z,22.93
2019-03-28T05:25:34.801Z,22.57
2019-03-28T05:28:03.328Z,23.57
2019-03-28T05:30:32.014Z,25.43
2019-03-28T05:33:00.774Z,24.13
2019-03-28T05:35:30.956Z,24.87
2019-03-28T05:37:59.496Z,24.97
2019-03-28T05:40:28.054Z,24.90
2019-03-28T05:42:59.350Z,26.13
2019-03-28T05:45:27.935Z,24.90
2019-03-28T05:48:00.180Z,24.87
2019-03-28T05:50:27.969Z,25.47
2019-03-28T05:52:56.567Z,24.60
2019-03-28T05:55:25.124Z,26.07
2019-03-28T05:57:55.222Z,26.67
2019-03-28T06:00:23.752Z,26.10
2019-03-28T06:02:52.311Z,27.25
2019-03-28T06:05:20.878Z,26.43
2019-03-28T06:07:51.165Z,25.33
2019-03-28T06:10:19.710Z,24.37
2019-03-28T06:12:48.285Z,25.53
2019-03-28T06:15:19.496Z,28.67
2019-03-28T06:17:48.120Z,26.47
2019-03-28T06:20:16.823Z,28.43
2019-03-28T06:22:46.957Z,26.27
2019-03-28T06:25:15.519Z,26.10
2019-03-28T06:27:44.196Z,27.95
2019-03-28T06:30:13.729Z,27.70
2019-03-28T06:32:46.377Z,29.20
2019-03-28T06:35:16.526Z,28.17
2019-03-28T06:37:47.794Z,27.37
2019-03-28T06:40:17.883Z,26.07
2019-03-28T06:42:46.473Z,28.83
2019-03-28T06:45:15.147Z,26.80
2019-03-28T06:47:43.717Z,29.00
2019-03-28T06:50:15.108Z,28.37
2019-03-28T06:52:43.669Z,28.17
2019-03-28T06:55:15.898Z,26.67
2019-03-28T06:57:46.527Z,27.85
2019-03-28T07:00:15.837Z,29.53
2019-03-28T07:02:49.031Z,31.00
2019-03-28T07:05:17.602Z,29.27
2019-03-28T07:07:46.215Z,28.10
2019-03-28T07:10:15.207Z,29.43
2019-03-28T07:12:44.305Z,31.12
2019-03-28T07:15:13.197Z,31.77
2019-03-28T07:17:41.779Z,31.27
2019-03-28T07:20:11.076Z,31.70
2019-03-28T07:22:45.776Z,30.23
2019-03-28T07:25:17.528Z,31.63
2019-03-28T07:27:46.087Z,30.95
2019-03-28T07:30:17.145Z,31.47
2019-03-28T07:32:45.794Z,30.53
2019-03-28T07:35:14.627Z,32.28
2019-03-28T07:37:43.344Z,31.23
2019-03-28T07:40:12.964Z,30.67
2019-03-28T07:42:41.752Z,29.47
2019-03-28T07:45:11.674Z,29.70
2019-03-28T07:47:41.255Z,31.77
2019-03-28T07:50:11.617Z,30.37
2019-03-28T07:52:42.703Z,28.75
2019-03-28T07:55:11.512Z,29.40
2019-03-28T07:57:40.072Z,29.45
2019-03-28T08:00:13.018Z,29.67
2019-03-28T08:02:41.798Z,29.13
2019-03-28T08:05:10.963Z,28.87
2019-03-28T08:07:45.449Z,28.90
2019-03-28T08:10:13.775Z,29.17
2019-03-28T08:12:43.850Z,28.50
2019-03-28T08:15:12.805Z,30.43
2019-03-28T08:17:41.430Z,29.50
2019-03-28T08:20:11.696Z,28.77
2019-03-28T08:22:42.694Z,28.85
2019-03-28T08:25:12.253Z,29.67
2019-03-28T08:27:42.946Z,27.53
2019-03-28T08:30:18.675Z,28.00
2019-03-28T08:32:43.079Z,26.57
2019-03-28T08:35:11.808Z,27.77
2019-03-28T08:37:43.944Z,28.13
2019-03-28T08:40:16.930Z,25.93
2019-03-28T08:42:45.635Z,26.43
2019-03-28T08:45:17.192Z,26.50
2019-03-28T08:47:45.785Z,26.77
2019-03-28T08:50:16.984Z,25.87
2019-03-28T08:52:46.609Z,25.27
2019-03-28T08:55:15.147Z,24.35
2019-03-28T08:57:43.714Z,23.37
2019-03-28T09:00:16.678Z,22.97
2019-03-28T09:02:47.086Z,23.07
2019-03-28T09:05:18.259Z,23.83
2019-03-28T09:07:46.827Z,22.17
2019-03-28T09:10:15.484Z,23.02
2019-03-28T09:12:45.191Z,20.70
2019-03-28T09:15:14.300Z,20.60
2019-03-28T09:17:43.877Z,19.67
2019-03-28T09:20:16.597Z,18.60
2019-03-28T09:22:51.047Z,18.60
2019-03-28T09:25:19.675Z,18.62
2019-03-28T09:27:51.483Z,18.32
2019-03-28T09:30:48.269Z,17.40
2019-03-28T09:33:07.671Z,16.97
2019-03-28T09:35:41.245Z,16.67
2019-03-28T09:38:09.769Z,16.53
2019-03-28T09:40:38.403Z,15.47
2019-03-28T09:43:08.664Z,16.70
2019-03-28T09:45:39.367Z,16.83
2019-03-28T09:48:11.450Z,17.10
2019-03-28T09:50:38.747Z,16.23
2019-03-28T09:53:09.614Z,15.90
2019-03-28T09:55:38.104Z,14.07
2019-03-28T09:58:08.075Z,15.40
2019-03-28T10:00:36.693Z,15.13
2019-03-28T10:03:05.329Z,12.47
2019-03-28T10:05:34.110Z,12.90
2019-03-28T10:08:04.037Z,11.63
2019-03-28T10:10:33.931Z,9.33
2019-03-28T10:13:03.699Z,13.73
2019-03-28T10:15:36.941Z,14.33
2019-03-28T10:18:05.357Z,9.80
2019-03-28T10:20:35.295Z,8.80
2019-03-28T10:23:05.122Z,9.53
2019-03-28T10:25:34.087Z,11.30
2019-03-28T10:28:02.761Z,10.30
2019-03-28T10:30:41.704Z,9.90
2019-03-28T10:33:13.118Z,10.23
2019-03-28T10:36:01.009Z,8.73
2019-03-28T10:38:29.526Z,8.10
2019-03-28T10:40:58.101Z,9.00
2019-03-28T10:43:31.151Z,7.97
2019-03-28T10:46:00.864Z,8.47
2019-03-28T10:48:30.961Z,8.93
2019-03-28T10:50:59.563Z,9.90
2019-03-28T10:53:33.325Z,9.73
2019-03-28T10:56:20.561Z,9.07
2019-03-28T10:58:37.806Z,9.47
2019-03-28T11:01:06.987Z,9.80
2019-03-28T11:03:39.782Z,9.73
2019-03-28T11:06:08.353Z,9.37
2019-03-28T11:08:40.004Z,8.93
2019-03-28T11:11:13.938Z,9.63
2019-03-28T11:13:42.628Z,9.87
2019-03-28T11:16:11.293Z,9.63
2019-03-28T11:18:39.905Z,9.30
2019-03-28T11:21:12.244Z,10.08
2019-03-28T11:23:41.984Z,9.83
2019-03-28T11:26:10.668Z,9.20
2019-03-28T11:28:39.229Z,9.80
2019-03-28T11:31:09.361Z,9.03
2019-03-28T11:33:40.328Z,9.80
2019-03-28T11:36:08.854Z,8.30
2019-03-28T11:38:38.439Z,7.70
2019-03-28T11:41:08.814Z,7.97
2019-03-28T11:43:40.556Z,7.93
2019-03-28T11:46:09.154Z,8.87
2019-03-28T11:48:37.728Z,8.93
2019-03-28T11:51:07.508Z,9.67
2019-03-28T11:53:37.381Z,10.60
2019-03-28T11:56:05.991Z,10.03
2019-03-28T11:58:35.859Z,9.78
2019-03-28T12:01:10.162Z,11.12
2019-03-28T12:03:38.750Z,12.00
2019-03-28T12:06:07.326Z,11.88
2019-03-28T12:08:35.887Z,11.77
2019-03-28T12:11:04.590Z,12.27
2019-03-28T12:13:44.634Z,12.00
2019-03-28T12:16:07.841Z,12.45
2019-03-28T12:18:36.442Z,12.37
2019-03-28T12:21:07.819Z,12.93
2019-03-28T12:23:36.510Z,11.77
2019-03-28T12:26:08.084Z,11.63
2019-03-28T12:28:36.666Z,11.73
2019-03-28T12:31:06.316Z,11.77
2019-03-28T12:33:36.464Z,11.37
2019-03-28T12:36:06.728Z,11.43
2019-03-28T12:38:35.433Z,10.63
2019-03-28T12:41:04.131Z,10.15
2019-03-28T12:43:33.726Z,12.27
2019-03-28T12:46:02.497Z,11.37
2019-03-28T12:48:31.362Z,11.33
2019-03-28T12:51:01.455Z,11.20
2019-03-28T12:53:34.195Z,10.53
2019-03-28T12:56:04.127Z,10.10
2019-03-28T12:58:32.686Z,9.93
2019-03-28T13:01:01.272Z,10.72
2019-03-28T13:03:44.234Z,10.67
2019-03-28T13:06:00.143Z,10.10
2019-03-28T13:08:34.275Z,11.23
2019-03-28T13:11:04.483Z,10.23
2019-03-28T13:13:40.012Z,9.80
2019-03-28T13:16:08.728Z,9.65
2019-03-28T13:18:37.298Z,8.45
2019-03-28T13:21:13.399Z,8.90
2019-03-28T13:23:37.345Z,9.10
2019-03-28T13:26:05.851Z,9.00
2019-03-28T13:28:37.870Z,9.27
2019-03-28T13:31:06.515Z,10.53
2019-03-28T13:33:38.306Z,10.50
2019-03-28T13:36:06.872Z,9.33
2019-03-28T13:38:35.336Z,9.80
2019-03-28T13:41:03.860Z,8.87
2019-03-28T13:43:35.306Z,9.00
2019-03-28T13:46:03.823Z,8.68
2019-03-28T13:48:33.214Z,8.30
2019-03-28T13:51:01.870Z,11.07
2019-03-28T13:53:39.321Z,10.00
2019-03-28T13:56:05.573Z,9.90
2019-03-28T13:58:34.076Z,10.05
2019-03-28T14:01:03.664Z,9.63
2019-03-28T14:03:32.295Z,10.70
2019-03-28T14:06:00.850Z,10.57
2019-03-28T14:08:29.391Z,10.93
2019-03-28T14:10:58.011Z,10.40
2019-03-28T14:13:26.485Z,10.70
2019-03-28T14:15:54.951Z,9.90
2019-03-28T14:18:25.065Z,9.43
2019-03-28T14:20:53.524Z,10.77
2019-03-28T14:23:21.990Z,10.40
2019-03-28T14:25:52.169Z,11.47
2019-03-28T14:28:20.639Z,10.30
2019-03-28T14:30:50.453Z,10.60
2019-03-28T14:33:18.940Z,10.03
2019-03-28T14:35:47.403Z,10.70
2019-03-28T14:38:16.935Z,11.50
2019-03-28T14:40:54.599Z,11.03
2019-03-28T14:43:24.183Z,10.73
2019-03-28T14:45:52.683Z,10.35
2019-03-28T14:48:22.693Z,9.97
2019-03-28T14:50:51.145Z,10.10
2019-03-28T14:53:22.228Z,10.90
2019-03-28T14:55:50.376Z,9.83
2019-03-28T14:58:21.978Z,10.35
2019-03-28T15:00:51.788Z,11.20
2019-03-28T15:03:26.278Z,14.50
2019-03-28T15:05:50.798Z,11.37
2019-03-28T15:08:20.817Z,10.10
2019-03-28T15:10:50.466Z,10.82
2019-03-28T15:13:20.369Z,9.60
2019-03-28T15:15:48.843Z,9.13
2019-03-28T15:18:19.034Z,9.97
2019-03-28T15:20:51.647Z,9.83
2019-03-28T15:23:20.383Z,10.37
2019-03-28T15:25:50.365Z,9.83
2019-03-28T15:28:18.816Z,9.83
2019-03-28T15:30:47.340Z,8.90
2019-03-28T15:33:15.838Z,9.10
2019-03-28T15:35:45.935Z,9.33
2019-03-28T15:38:14.410Z,9.97
2019-03-28T15:40:45.976Z,9.77
2019-03-28T15:43:14.582Z,9.47
2019-03-28T15:45:44.576Z,8.83
2019-03-28T15:48:13.072Z,9.77
2019-03-28T15:50:43.592Z,10.17
2019-03-28T15:53:12.068Z,10.60
2019-03-28T15:55:40.552Z,10.03
2019-03-28T15:58:22.056Z,8.90
2019-03-28T16:00:41.717Z,9.70
2019-03-28T16:03:16.378Z,8.90
2019-03-28T16:05:57.647Z,9.27
2019-03-28T16:08:15.155Z,9.60
2019-03-28T16:10:45.401Z,8.47
2019-03-28T16:13:14.200Z,8.87
2019-03-28T16:15:42.768Z,9.33
2019-03-28T16:18:11.342Z,8.73
2019-03-28T16:20:39.834Z,8.67
2019-03-28T16:23:09.973Z,9.37
2019-03-28T16:25:38.446Z,9.73
2019-03-28T16:28:07.046Z,8.10
2019-03-28T16:30:39.279Z,8.13
2019-03-28T16:33:08.424Z,8.57
2019-03-28T16:35:39.828Z,8.73
2019-03-28T16:38:08.307Z,8.57
2019-03-28T16:40:37.240Z,9.80
2019-03-28T16:43:08.613Z,9.63
2019-03-28T16:45:39.993Z,10.10
2019-03-28T16:48:10.182Z,11.83
2019-03-28T16:50:38.899Z,12.93
2019-03-28T16:53:09.771Z,12.17
2019-03-28T16:55:38.753Z,8.40
2019-03-28T16:58:09.842Z,8.58
2019-03-28T17:00:38.866Z,9.03
2019-03-28T17:03:10.223Z,8.37
2019-03-28T17:05:42.447Z,9.33
2019-03-28T17:08:11.168Z,8.33
2019-03-28T17:10:52.184Z,8.47
2019-03-28T17:13:17.991Z,8.00
2019-03-28T17:15:46.665Z,8.93
2019-03-28T17:18:19.267Z,8.73
2019-03-28T17:20:49.301Z,8.73
2019-03-28T17:23:22.033Z,8.77
2019-03-28T17:25:51.346Z,8.88
2019-03-28T17:28:19.880Z,7.67
2019-03-28T17:30:51.527Z,8.40
2019-03-28T17:33:20.014Z,8.83
2019-03-28T17:35:48.608Z,8.13
2019-03-28T17:38:19.339Z,8.73
2019-03-28T17:40:47.821Z,8.83
2019-03-28T17:43:17.378Z,8.45
2019-03-28T17:45:45.917Z,8.53
2019-03-28T17:48:14.483Z,8.93
2019-03-28T17:50:43.723Z,8.83
2019-03-28T17:53:12.597Z,9.63
2019-03-28T17:55:42.987Z,8.47
2019-03-28T17:58:11.523Z,9.37
2019-03-28T18:00:40.856Z,9.80
2019-03-28T18:03:09.968Z,9.28
2019-03-28T18:05:40.643Z,10.10
2019-03-28T18:08:10.331Z,10.23
2019-03-28T18:10:38.834Z,10.73
2019-03-28T18:13:08.359Z,10.50
2019-03-28T18:15:36.837Z,10.20
2019-03-28T18:18:05.393Z,10.43
2019-03-28T18:20:36.917Z,10.57
2019-03-28T18:23:05.457Z,10.43
2019-03-28T18:25:34.004Z,11.37
2019-03-28T18:28:04.197Z,11.07
2019-03-28T18:30:37.451Z,10.60
2019-03-28T18:33:06.263Z,11.90
2019-03-28T18:35:34.945Z,12.30
2019-03-28T18:38:03.541Z,11.53
2019-03-28T18:40:32.169Z,12.90
2019-03-28T18:43:01.750Z,12.57
2019-03-28T18:45:31.921Z,13.43
2019-03-28T18:48:00.518Z,13.80
2019-03-28T18:50:29.006Z,15.70
2019-03-28T18:52:59.021Z,14.13
2019-03-28T18:55:30.003Z,13.33
2019-03-28T18:58:00.688Z,13.63
2019-03-28T19:00:29.194Z,14.17
2019-03-28T19:02:57.848Z,13.43
2019-03-28T19:05:26.405Z,14.53
2019-03-28T19:07:54.864Z,15.77
2019-03-28T19:10:25.029Z,16.30
2019-03-28T19:12:56.180Z,17.40
2019-03-28T19:15:25.671Z,17.50
2019-03-28T19:17:54.214Z,16.30
2019-03-28T19:20:22.724Z,16.30
2019-03-28T19:22:54.046Z,16.17
2019-03-28T19:25:22.718Z,17.20
2019-03-28T19:27:51.348Z,15.80
2019-03-28T19:30:25.428Z,15.27
2019-03-28T19:32:55.309Z,16.23
2019-03-28T19:35:33.152Z,17.27
2019-03-28T19:38:00.192Z,17.20
2019-03-28T19:40:28.783Z,18.27
2019-03-28T19:43:01.814Z,16.37
2019-03-28T19:45:36.134Z,17.97
2019-03-28T19:48:06.965Z,19.07
2019-03-28T19:50:35.494Z,18.75
2019-03-28T19:53:04.281Z,19.60
2019-03-28T19:55:32.784Z,20.50
2019-03-28T19:58:01.241Z,20.10
2019-03-28T20:00:29.775Z,21.83
2019-03-28T20:03:00.386Z,20.80
2019-03-28T20:05:28.514Z,23.43
2019-03-28T20:07:59.828Z,21.00
2019-03-28T20:10:28.396Z,22.17
2019-03-28T20:12:57.608Z,23.05
2019-03-28T20:15:27.330Z,22.20
2019-03-28T20:17:55.816Z,22.37
2019-03-28T20:20:25.274Z,22.30
2019-03-28T20:22:53.829Z,21.30
2019-03-28T20:25:22.553Z,20.97
2019-03-28T20:27:51.027Z,21.20
2019-03-28T20:30:19.881Z,21.60
2019-03-28T20:32:48.400Z,22.87
2019-03-28T20:35:17.110Z,22.97
2019-03-28T20:37:45.582Z,22.33
2019-03-28T20:40:14.776Z,22.35
2019-03-28T20:42:45.665Z,20.90
2019-03-28T20:45:16.284Z,20.77
2019-03-28T20:47:44.893Z,21.03
2019-03-28T20:50:17.023Z,21.13
2019-03-28T20:52:45.621Z,20.50
2019-03-28T20:55:16.833Z,21.48
2019-03-28T20:57:45.299Z,21.13
2019-03-28T21:00:14.404Z,20.63
2019-03-28T21:02:42.977Z,19.27
2019-03-28T21:05:14.469Z,19.17
2019-03-28T21:07:45.503Z,19.53
2019-03-28T21:10:26.185Z,18.70
2019-03-28T21:12:56.203Z,19.00
2019-03-28T21:15:24.655Z,18.98
2019-03-28T21:17:53.151Z,19.57
2019-03-28T21:20:22.650Z,19.90
2019-03-28T21:22:54.695Z,19.05
2019-03-28T21:25:23.994Z,20.53
2019-03-28T21:27:53.625Z,18.83
2019-03-28T21:30:27.110Z,21.13
2019-03-28T21:32:57.611Z,20.43
2019-03-28T21:35:28.365Z,20.17
2019-03-28T21:37:56.831Z,20.90
2019-03-28T21:40:27.747Z,20.20
2019-03-28T21:42:56.343Z,19.77
2019-03-28T21:45:24.868Z,19.20
2019-03-28T21:47:53.353Z,19.03
2019-03-28T21:50:21.902Z,19.43
2019-03-28T21:52:51.674Z,19.67
2019-03-28T21:55:20.417Z,19.62
2019-03-28T21:57:48.878Z,19.47
2019-03-28T22:00:18.812Z,19.60
2019-03-28T22:02:47.630Z,19.65
2019-03-28T22:05:16.790Z,19.37
2019-03-28T22:07:47.245Z,19.57
2019-03-28T22:10:17.967Z,20.03
2019-03-28T22:12:46.453Z,21.90
2019-03-28T22:15:18.107Z,20.37
2019-03-28T22:17:46.575Z,21.27
2019-03-28T22:20:17.909Z,19.50
2019-03-28T22:22:50.202Z,19.40
2019-03-28T22:25:18.792Z,20.63
2019-03-28T22:27:47.683Z,21.23
2019-03-28T22:30:17.316Z,21.30
2019-03-28T22:32:46.767Z,22.70
2019-03-28T22:35:18.446Z,23.80
2019-03-28T22:37:46.903Z,22.00
2019-03-28T22:40:15.512Z,23.47
2019-03-28T22:42:45.765Z,22.83
2019-03-28T22:45:15.763Z,21.85
2019-03-28T22:47:44.297Z,22.30
2019-03-28T22:50:15.560Z,23.52
2019-03-28T22:52:45.290Z,23.77
2019-03-28T22:55:14.192Z,22.50
2019-03-28T22:57:45.421Z,23.57
2019-03-28T23:00:15.286Z,23.33
2019-03-28T23:02:43.860Z,23.20
2019-03-28T23:05:12.817Z,25.03
2019-03-28T23:07:41.342Z,27.33
2019-03-28T23:10:11.563Z,29.43
2019-03-28T23:12:40.196Z,29.35
2019-03-28T23:15:10.984Z,27.37
2019-03-28T23:17:41.022Z,26.70
2019-03-28T23:20:10.731Z,26.93
2019-03-28T23:22:41.240Z,26.30
2019-03-28T23:25:10.805Z,25.00
2019-03-28T23:27:39.718Z,27.37
2019-03-28T23:30:09.830Z,25.32
2019-03-28T23:32:39.590Z,24.03
2019-03-28T23:35:08.622Z,23.60
2019-03-28T23:37:38.303Z,25.97
2019-03-28T23:40:12.368Z,23.93
2019-03-28T23:42:42.079Z,23.70
2019-03-28T23:45:12.540Z,24.33
2019-03-28T23:47:42.660Z,24.93
2019-03-28T23:50:11.385Z,22.50
2019-03-28T23:52:41.179Z,23.50
2019-03-28T23:55:11.351Z,23.30
2019-03-28T23:57:39.841Z,23.77
